Fayette, Pennsylvania
Current Conditions -  °F | °C
As of 2:53 PM on Friday 24 Oct 2014 (Local Time) from KSEG Reporting Station
Clear Clear  
Wind Chill: 69°   Ceiling: Unl
Heat Index: 69°   Visibility: 10mi
Dew Point: 32°   Wind: 10mph
Humidity: 25%   Direction: 270°W
Pressure: 29.87"   Gusts: 18mph
Location:  40.6534°N, 77.2807°W
Report Text: KSEG 241853Z AUTO 27009G16KT 230V310 10SM CLR 21/00 A2987 RMK AO2 SLP114 T02060000
Loading
Personal Weather Stations






























Interactive Weather Map
Tropical Storm Tracking
New forecast layout! Learn more

10-Day Weather Forecast

Advertisements
Track Severe Weather on mobile